AEZ2330 LIEE-LIRF
Flight info
| Callsign | AEZ2330 |
|---|---|
| Flight time | 0h 53m |
| Altitude | 30000 |
| Route | KOVAS Q125 DEXUL DCT ABIDU DCT TINTO DCT VALMA |
| Aircraft | B738/M-SDE2E3FGHIRWXY/LB1 |
Departure
| Time | 2026-05-08 11:39 |
|---|---|
| Airport | Cagliari Elmas Airport (LIEE) |
Arrival
| Time | 2026-05-08 12:32 |
|---|---|
| Airport | Rome–Fiumicino Leonardo da Vinci International Airport (LIRF) |
| Time | Latitude | Longitude | Altitude | Speed | Heading |
|---|---|---|---|---|---|
| 2026-05-08 11:06 | 39.25337 | 9.05840 | 14 ft | 0 kts | 142° |
| 2026-05-08 11:11 | 39.25366 | 9.05881 | 15 ft | 0 kts | 142° |
| 2026-05-08 11:17 | 39.25370 | 9.05877 | 15 ft | 4 kts | 143° |
| 2026-05-08 11:17 | 39.25393 | 9.05858 | 15 ft | 4 kts | 152° |
| 2026-05-08 11:17 | 39.25417 | 9.05846 | 17 ft | 4 kts | 174° |
| 2026-05-08 11:17 | 39.25439 | 9.05851 | 17 ft | 3 kts | 228° |
| 2026-05-08 11:18 | 39.25441 | 9.05854 | 17 ft | 1 kts | 232° |
| 2026-05-08 11:34 | 39.25438 | 9.05849 | -9 ft | 2 kts | 232° |
| 2026-05-08 11:34 | 39.25422 | 9.05823 | 25 ft | 5 kts | 232° |
| 2026-05-08 11:35 | 39.25397 | 9.05781 | 14 ft | 6 kts | 232° |
| 2026-05-08 11:35 | 39.25367 | 9.05731 | 14 ft | 8 kts | 237° |
| 2026-05-08 11:35 | 39.25362 | 9.05638 | 14 ft | 14 kts | 290° |
| 2026-05-08 11:35 | 39.25401 | 9.05495 | 14 ft | 20 kts | 288° |
| 2026-05-08 11:36 | 39.25483 | 9.05323 | 14 ft | 25 kts | 313° |
| 2026-05-08 11:36 | 39.25625 | 9.05154 | 14 ft | 30 kts | 318° |
| 2026-05-08 11:36 | 39.25791 | 9.04963 | 14 ft | 34 kts | 318° |
| 2026-05-08 11:36 | 39.25974 | 9.04749 | 14 ft | 36 kts | 317° |
| 2026-05-08 11:37 | 39.26114 | 9.04556 | 14 ft | 16 kts | 293° |
| 2026-05-08 11:37 | 39.26120 | 9.04456 | 14 ft | 5 kts | 252° |
| 2026-05-08 11:37 | 39.26115 | 9.04439 | 14 ft | 8 kts | 245° |
| 2026-05-08 11:38 | 39.26053 | 9.04390 | 14 ft | 13 kts | 164° |
| 2026-05-08 11:38 | 39.26035 | 9.04403 | 15 ft | 0 kts | 146° |
| 2026-05-08 11:39 | 39.25845 | 9.04612 | 15 ft | 84 kts | 137° |
| 2026-05-08 11:39 | 39.25181 | 9.05357 | 54 ft | 163 kts | 141° |
| 2026-05-08 11:39 | 39.24350 | 9.06444 | 1032 ft | 172 kts | 133° |
| 2026-05-08 11:39 | 39.23636 | 9.07613 | 2436 ft | 156 kts | 124° |
| 2026-05-08 11:40 | 39.22895 | 9.08506 | 3638 ft | 139 kts | 145° |
| 2026-05-08 11:40 | 39.22154 | 9.09209 | 4482 ft | 127 kts | 139° |
| 2026-05-08 11:40 | 39.21467 | 9.09935 | 4944 ft | 143 kts | 139° |
| 2026-05-08 11:40 | 39.20598 | 9.10874 | 5222 ft | 180 kts | 140° |
| 2026-05-08 11:41 | 39.19379 | 9.11683 | 5474 ft | 215 kts | 162° |
| 2026-05-08 11:41 | 39.17832 | 9.11891 | 5833 ft | 236 kts | 187° |
| 2026-05-08 11:41 | 39.16293 | 9.11116 | 6573 ft | 243 kts | 217° |
| 2026-05-08 11:41 | 39.15061 | 9.09631 | 7524 ft | 242 kts | 227° |
| 2026-05-08 11:42 | 39.14052 | 9.07912 | 8463 ft | 243 kts | 247° |
| 2026-05-08 11:42 | 39.13764 | 9.05785 | 9393 ft | 244 kts | 275° |
| 2026-05-08 11:42 | 39.14321 | 9.03639 | 9884 ft | 270 kts | 304° |
| 2026-05-08 11:42 | 39.15676 | 9.01859 | 10433 ft | 285 kts | 317° |
| 2026-05-08 11:43 | 39.17167 | 9.00178 | 11309 ft | 290 kts | 317° |
| 2026-05-08 11:43 | 39.18683 | 8.98459 | 12279 ft | 291 kts | 316° |
| 2026-05-08 11:43 | 39.20204 | 8.96712 | 13226 ft | 293 kts | 315° |
| 2026-05-08 11:43 | 39.21729 | 8.94948 | 14066 ft | 297 kts | 315° |
| 2026-05-08 11:44 | 39.23462 | 8.93469 | 14850 ft | 306 kts | 333° |
| 2026-05-08 11:44 | 39.25620 | 8.92810 | 15216 ft | 335 kts | 350° |
| 2026-05-08 11:44 | 39.28029 | 8.92615 | 15370 ft | 360 kts | 353° |
| 2026-05-08 11:44 | 39.30620 | 8.92494 | 15556 ft | 383 kts | 354° |
| 2026-05-08 11:45 | 39.33322 | 8.92368 | 16010 ft | 394 kts | 353° |
| 2026-05-08 11:45 | 39.36051 | 8.92206 | 16675 ft | 399 kts | 353° |
| 2026-05-08 11:45 | 39.38821 | 8.92015 | 17418 ft | 400 kts | 352° |
| 2026-05-08 11:45 | 39.41625 | 8.91866 | 18100 ft | 407 kts | 357° |
| 2026-05-08 11:46 | 39.44438 | 8.92618 | 18628 ft | 424 kts | 18° |
| 2026-05-08 11:46 | 39.47098 | 8.94377 | 19223 ft | 431 kts | 25° |
| 2026-05-08 11:46 | 39.49716 | 8.96302 | 19765 ft | 436 kts | 25° |
| 2026-05-08 11:46 | 39.52368 | 8.98273 | 20298 ft | 441 kts | 25° |
| 2026-05-08 11:47 | 39.55041 | 9.00236 | 20850 ft | 444 kts | 25° |
| 2026-05-08 11:47 | 39.57755 | 9.02199 | 21418 ft | 447 kts | 24° |
| 2026-05-08 11:47 | 39.60447 | 9.04127 | 21955 ft | 451 kts | 24° |
| 2026-05-08 11:47 | 39.63235 | 9.06120 | 22478 ft | 454 kts | 24° |
| 2026-05-08 11:48 | 39.66072 | 9.07785 | 22944 ft | 451 kts | 12° |
| 2026-05-08 11:48 | 39.69096 | 9.08802 | 23464 ft | 450 kts | 8° |
| 2026-05-08 11:48 | 39.72163 | 9.09720 | 23914 ft | 453 kts | 7° |
| 2026-05-08 11:48 | 39.75236 | 9.10656 | 24327 ft | 456 kts | 8° |
| 2026-05-08 11:49 | 39.78334 | 9.11656 | 24745 ft | 459 kts | 8° |
| 2026-05-08 11:49 | 39.81431 | 9.12688 | 25162 ft | 462 kts | 9° |
| 2026-05-08 11:49 | 39.84477 | 9.13984 | 25544 ft | 471 kts | 17° |
| 2026-05-08 11:49 | 39.87429 | 9.15908 | 25933 ft | 480 kts | 26° |
| 2026-05-08 11:50 | 39.90170 | 9.18443 | 26312 ft | 488 kts | 34° |
| 2026-05-08 11:50 | 39.92814 | 9.21253 | 26690 ft | 491 kts | 35° |
| 2026-05-08 11:50 | 39.95444 | 9.24135 | 27042 ft | 495 kts | 36° |
| 2026-05-08 11:50 | 39.98075 | 9.27035 | 27360 ft | 498 kts | 36° |
| 2026-05-08 11:51 | 40.00728 | 9.29944 | 27692 ft | 501 kts | 35° |
| 2026-05-08 11:51 | 40.03419 | 9.32870 | 28002 ft | 504 kts | 35° |
| 2026-05-08 11:51 | 40.06122 | 9.35787 | 28328 ft | 506 kts | 34° |
| 2026-05-08 11:51 | 40.08813 | 9.38681 | 28715 ft | 507 kts | 34° |
| 2026-05-08 11:52 | 40.11527 | 9.41595 | 29212 ft | 505 kts | 34° |
| 2026-05-08 11:52 | 40.14243 | 9.44513 | 29739 ft | 504 kts | 34° |
| 2026-05-08 11:52 | 40.16946 | 9.47418 | 30029 ft | 506 kts | 34° |
| 2026-05-08 11:53 | 40.22407 | 9.53294 | 30015 ft | 506 kts | 34° |
| 2026-05-08 11:53 | 40.27813 | 9.59135 | 30027 ft | 504 kts | 34° |
| 2026-05-08 11:54 | 40.33192 | 9.64956 | 30005 ft | 505 kts | 34° |
| 2026-05-08 11:54 | 40.38604 | 9.70825 | 30014 ft | 505 kts | 34° |
| 2026-05-08 11:55 | 40.44016 | 9.76708 | 30001 ft | 505 kts | 34° |
| 2026-05-08 11:55 | 40.49430 | 9.82605 | 30004 ft | 506 kts | 34° |
| 2026-05-08 11:56 | 40.54807 | 9.88475 | 30016 ft | 506 kts | 34° |
| 2026-05-08 11:56 | 40.60215 | 9.94392 | 30009 ft | 505 kts | 34° |
| 2026-05-08 11:57 | 40.65602 | 10.00299 | 30007 ft | 505 kts | 34° |
| 2026-05-08 11:57 | 40.70990 | 10.06219 | 30009 ft | 504 kts | 34° |
| 2026-05-08 11:58 | 40.76365 | 10.12139 | 30010 ft | 503 kts | 34° |
| 2026-05-08 11:58 | 40.81693 | 10.18019 | 30009 ft | 502 kts | 34° |
| 2026-05-08 11:59 | 40.89720 | 10.26903 | 30012 ft | 501 kts | 34° |
| 2026-05-08 11:59 | 40.95053 | 10.32820 | 30007 ft | 500 kts | 34° |
| 2026-05-08 12:00 | 41.00275 | 10.38818 | 30005 ft | 503 kts | 39° |
| 2026-05-08 12:00 | 41.05104 | 10.45565 | 30012 ft | 505 kts | 42° |
| 2026-05-08 12:01 | 41.09827 | 10.52446 | 30009 ft | 506 kts | 42° |
| 2026-05-08 12:01 | 41.14598 | 10.59301 | 30004 ft | 506 kts | 41° |
| 2026-05-08 12:02 | 41.19400 | 10.66128 | 30008 ft | 506 kts | 41° |
| 2026-05-08 12:02 | 41.24173 | 10.72916 | 30005 ft | 506 kts | 41° |
| 2026-05-08 12:03 | 41.26595 | 10.76363 | 29238 ft | 512 kts | 41° |
| 2026-05-08 12:03 | 41.29008 | 10.79808 | 28423 ft | 508 kts | 41° |
| 2026-05-08 12:03 | 41.31416 | 10.83255 | 27507 ft | 507 kts | 42° |
| 2026-05-08 12:03 | 41.33809 | 10.86683 | 26543 ft | 507 kts | 42° |
| 2026-05-08 12:04 | 41.36211 | 10.90127 | 25656 ft | 505 kts | 43° |
| 2026-05-08 12:04 | 41.38545 | 10.93478 | 24989 ft | 498 kts | 43° |
| 2026-05-08 12:04 | 41.40878 | 10.96833 | 24296 ft | 492 kts | 44° |
| 2026-05-08 12:04 | 41.43193 | 11.00162 | 23589 ft | 486 kts | 44° |
| 2026-05-08 12:05 | 41.45464 | 11.03451 | 22784 ft | 481 kts | 46° |
| 2026-05-08 12:05 | 41.47468 | 11.07003 | 22059 ft | 476 kts | 56° |
| 2026-05-08 12:05 | 41.49027 | 11.10814 | 21725 ft | 462 kts | 65° |
| 2026-05-08 12:05 | 41.50198 | 11.14794 | 20997 ft | 458 kts | 69° |
| 2026-05-08 12:06 | 41.51266 | 11.18761 | 20318 ft | 453 kts | 70° |
| 2026-05-08 12:06 | 41.52306 | 11.22652 | 19652 ft | 448 kts | 70° |
| 2026-05-08 12:06 | 41.53360 | 11.26526 | 19120 ft | 440 kts | 70° |
| 2026-05-08 12:06 | 41.54400 | 11.30289 | 18960 ft | 423 kts | 69° |
| 2026-05-08 12:07 | 41.55409 | 11.33900 | 18773 ft | 409 kts | 69° |
| 2026-05-08 12:07 | 41.56386 | 11.37390 | 18599 ft | 396 kts | 69° |
| 2026-05-08 12:07 | 41.57335 | 11.40784 | 18438 ft | 383 kts | 70° |
| 2026-05-08 12:07 | 41.58255 | 11.44072 | 18107 ft | 376 kts | 69° |
| 2026-05-08 12:08 | 41.59172 | 11.47319 | 17714 ft | 371 kts | 69° |
| 2026-05-08 12:08 | 41.60071 | 11.50494 | 17273 ft | 368 kts | 70° |
| 2026-05-08 12:08 | 41.60970 | 11.53668 | 16851 ft | 364 kts | 70° |
| 2026-05-08 12:08 | 41.61862 | 11.56826 | 16425 ft | 361 kts | 70° |
| 2026-05-08 12:09 | 41.62740 | 11.59942 | 16015 ft | 357 kts | 70° |
| 2026-05-08 12:09 | 41.63613 | 11.63043 | 15604 ft | 354 kts | 70° |
| 2026-05-08 12:09 | 41.64472 | 11.66103 | 15201 ft | 351 kts | 70° |
| 2026-05-08 12:09 | 41.65327 | 11.69150 | 14799 ft | 348 kts | 70° |
| 2026-05-08 12:10 | 41.66170 | 11.72159 | 14396 ft | 345 kts | 71° |
| 2026-05-08 12:10 | 41.66998 | 11.75119 | 14001 ft | 342 kts | 71° |
| 2026-05-08 12:10 | 41.67827 | 11.78084 | 13564 ft | 340 kts | 71° |
| 2026-05-08 12:10 | 41.68658 | 11.81058 | 13273 ft | 333 kts | 71° |
| 2026-05-08 12:11 | 41.69445 | 11.83878 | 13110 ft | 322 kts | 71° |
| 2026-05-08 12:11 | 41.70210 | 11.86625 | 12972 ft | 312 kts | 71° |
| 2026-05-08 12:11 | 41.70954 | 11.89303 | 12863 ft | 301 kts | 71° |
| 2026-05-08 12:11 | 41.71668 | 11.91881 | 12761 ft | 292 kts | 71° |
| 2026-05-08 12:12 | 41.72368 | 11.94414 | 12695 ft | 288 kts | 71° |
| 2026-05-08 12:12 | 41.73068 | 11.96947 | 12617 ft | 289 kts | 71° |
| 2026-05-08 12:12 | 41.73925 | 11.99328 | 12497 ft | 282 kts | 53° |
| 2026-05-08 12:12 | 41.75392 | 12.00997 | 12423 ft | 275 kts | 28° |
| 2026-05-08 12:13 | 41.77206 | 12.01711 | 12353 ft | 273 kts | 6° |
| 2026-05-08 12:13 | 41.79068 | 12.01514 | 12283 ft | 274 kts | 347° |
| 2026-05-08 12:13 | 41.80916 | 12.00791 | 12401 ft | 282 kts | 343° |
| 2026-05-08 12:13 | 41.82813 | 11.99971 | 12298 ft | 289 kts | 343° |
| 2026-05-08 12:14 | 41.84732 | 11.99131 | 12212 ft | 291 kts | 343° |
| 2026-05-08 12:14 | 41.86656 | 11.98292 | 12093 ft | 290 kts | 343° |
| 2026-05-08 12:14 | 41.88561 | 11.97468 | 11971 ft | 286 kts | 343° |
| 2026-05-08 12:14 | 41.90430 | 11.96665 | 11899 ft | 276 kts | 344° |
| 2026-05-08 12:15 | 41.92238 | 11.95893 | 11824 ft | 272 kts | 344° |
| 2026-05-08 12:15 | 41.94039 | 11.95126 | 11750 ft | 271 kts | 344° |
| 2026-05-08 12:15 | 41.95850 | 11.94357 | 11685 ft | 276 kts | 344° |
| 2026-05-08 12:15 | 41.97674 | 11.93582 | 11601 ft | 279 kts | 344° |
| 2026-05-08 12:16 | 41.99519 | 11.92797 | 11502 ft | 278 kts | 344° |
| 2026-05-08 12:16 | 42.01362 | 11.92013 | 11410 ft | 276 kts | 344° |
| 2026-05-08 12:16 | 42.03186 | 11.91237 | 11317 ft | 275 kts | 344° |
| 2026-05-08 12:16 | 42.05009 | 11.90461 | 11233 ft | 273 kts | 344° |
| 2026-05-08 12:17 | 42.06805 | 11.89696 | 11124 ft | 268 kts | 344° |
| 2026-05-08 12:17 | 42.08557 | 11.88949 | 11015 ft | 260 kts | 344° |
| 2026-05-08 12:17 | 42.10262 | 11.88221 | 10940 ft | 256 kts | 344° |
| 2026-05-08 12:17 | 42.11954 | 11.87499 | 10854 ft | 256 kts | 344° |
| 2026-05-08 12:18 | 42.13642 | 11.86778 | 10772 ft | 259 kts | 344° |
| 2026-05-08 12:18 | 42.15371 | 11.86040 | 10685 ft | 263 kts | 344° |
| 2026-05-08 12:18 | 42.17117 | 11.85293 | 10547 ft | 262 kts | 344° |
| 2026-05-08 12:18 | 42.18849 | 11.84552 | 10458 ft | 261 kts | 344° |
| 2026-05-08 12:19 | 42.20583 | 11.83809 | 10370 ft | 260 kts | 344° |
| 2026-05-08 12:19 | 42.22304 | 11.83071 | 10284 ft | 260 kts | 344° |
| 2026-05-08 12:19 | 42.24029 | 11.82332 | 10198 ft | 259 kts | 344° |
| 2026-05-08 12:19 | 42.25744 | 11.81596 | 10111 ft | 259 kts | 344° |
| 2026-05-08 12:20 | 42.27441 | 11.80868 | 10030 ft | 259 kts | 344° |
| 2026-05-08 12:20 | 42.29156 | 11.80162 | 9935 ft | 257 kts | 350° |
| 2026-05-08 12:20 | 42.30910 | 11.80266 | 9840 ft | 252 kts | 21° |
| 2026-05-08 12:20 | 42.32352 | 11.81508 | 9761 ft | 247 kts | 49° |
| 2026-05-08 12:21 | 42.33249 | 11.83445 | 9684 ft | 244 kts | 69° |
| 2026-05-08 12:21 | 42.33799 | 11.85612 | 9609 ft | 243 kts | 73° |
| 2026-05-08 12:21 | 42.34295 | 11.87802 | 9516 ft | 243 kts | 73° |
| 2026-05-08 12:21 | 42.34763 | 11.89958 | 9428 ft | 243 kts | 79° |
| 2026-05-08 12:22 | 42.34676 | 11.92172 | 9328 ft | 235 kts | 109° |
| 2026-05-08 12:22 | 42.33834 | 11.94024 | 9248 ft | 232 kts | 133° |
| 2026-05-08 12:22 | 42.32505 | 11.95234 | 9191 ft | 233 kts | 156° |
| 2026-05-08 12:22 | 42.30958 | 11.95963 | 9136 ft | 237 kts | 161° |
| 2026-05-08 12:23 | 42.29368 | 11.96619 | 9057 ft | 241 kts | 161° |
| 2026-05-08 12:23 | 42.27756 | 11.97281 | 8930 ft | 243 kts | 161° |
| 2026-05-08 12:23 | 42.26118 | 11.97957 | 8624 ft | 248 kts | 161° |
| 2026-05-08 12:23 | 42.24491 | 11.98639 | 8338 ft | 248 kts | 161° |
| 2026-05-08 12:24 | 42.22849 | 11.99334 | 8045 ft | 248 kts | 161° |
| 2026-05-08 12:24 | 42.21195 | 12.00036 | 7753 ft | 250 kts | 161° |
| 2026-05-08 12:24 | 42.19534 | 12.00742 | 7447 ft | 252 kts | 161° |
| 2026-05-08 12:24 | 42.17857 | 12.01457 | 7151 ft | 254 kts | 161° |
| 2026-05-08 12:25 | 42.16150 | 12.02186 | 6952 ft | 260 kts | 161° |
| 2026-05-08 12:25 | 42.14406 | 12.02931 | 6618 ft | 267 kts | 161° |
| 2026-05-08 12:25 | 42.12618 | 12.03708 | 6257 ft | 272 kts | 158° |
| 2026-05-08 12:25 | 42.11046 | 12.05108 | 5861 ft | 274 kts | 133° |
| 2026-05-08 12:26 | 42.09766 | 12.06984 | 5578 ft | 277 kts | 131° |
| 2026-05-08 12:26 | 42.08460 | 12.08927 | 5217 ft | 283 kts | 131° |
| 2026-05-08 12:26 | 42.07132 | 12.10896 | 4867 ft | 285 kts | 131° |
| 2026-05-08 12:26 | 42.05791 | 12.12870 | 4531 ft | 283 kts | 132° |
| 2026-05-08 12:27 | 42.04488 | 12.14781 | 4159 ft | 273 kts | 132° |
| 2026-05-08 12:27 | 42.03231 | 12.16618 | 3845 ft | 259 kts | 133° |
| 2026-05-08 12:27 | 42.02435 | 12.17775 | 3655 ft | 251 kts | 135° |
| 2026-05-08 12:27 | 42.01562 | 12.18698 | 3584 ft | 236 kts | 153° |
| 2026-05-08 12:28 | 42.00149 | 12.19537 | 3341 ft | 225 kts | 160° |
| 2026-05-08 12:28 | 41.98724 | 12.20217 | 3072 ft | 217 kts | 163° |
| 2026-05-08 12:28 | 41.97322 | 12.20813 | 2809 ft | 206 kts | 164° |
| 2026-05-08 12:28 | 41.95986 | 12.21369 | 2533 ft | 194 kts | 164° |
| 2026-05-08 12:29 | 41.94734 | 12.21892 | 2274 ft | 183 kts | 164° |
| 2026-05-08 12:29 | 41.93555 | 12.22388 | 2052 ft | 170 kts | 164° |
| 2026-05-08 12:29 | 41.92497 | 12.22833 | 1836 ft | 149 kts | 164° |
| 2026-05-08 12:29 | 41.91566 | 12.23224 | 1629 ft | 135 kts | 164° |
| 2026-05-08 12:30 | 41.90664 | 12.23601 | 1455 ft | 137 kts | 164° |
| 2026-05-08 12:30 | 41.89772 | 12.23975 | 1258 ft | 135 kts | 163° |
| 2026-05-08 12:30 | 41.88883 | 12.24350 | 906 ft | 134 kts | 164° |
| 2026-05-08 12:30 | 41.87993 | 12.24723 | 732 ft | 133 kts | 163° |
| 2026-05-08 12:31 | 41.87147 | 12.25078 | 573 ft | 132 kts | 163° |
| 2026-05-08 12:31 | 41.86284 | 12.25441 | 402 ft | 133 kts | 163° |
| 2026-05-08 12:31 | 41.85437 | 12.25797 | 245 ft | 133 kts | 163° |
| 2026-05-08 12:31 | 41.84560 | 12.26165 | 59 ft | 130 kts | 163° |
| 2026-05-08 12:32 | 41.83762 | 12.26493 | 17 ft | 99 kts | 163° |
| 2026-05-08 12:32 | 41.83281 | 12.26663 | 15 ft | 60 kts | 178° |
| 2026-05-08 12:32 | 41.82997 | 12.26594 | 14 ft | 28 kts | 193° |
| 2026-05-08 12:32 | 41.82853 | 12.26573 | 14 ft | 18 kts | 173° |
| 2026-05-08 12:33 | 41.82730 | 12.26614 | 14 ft | 18 kts | 163° |
| 2026-05-08 12:33 | 41.82610 | 12.26661 | 14 ft | 19 kts | 163° |
| 2026-05-08 12:33 | 41.82475 | 12.26716 | 17 ft | 22 kts | 162° |
| 2026-05-08 12:33 | 41.82324 | 12.26783 | 14 ft | 24 kts | 162° |
| 2026-05-08 12:34 | 41.82159 | 12.26855 | 15 ft | 26 kts | 162° |
| 2026-05-08 12:34 | 41.81980 | 12.26933 | 16 ft | 28 kts | 162° |
| 2026-05-08 12:34 | 41.81788 | 12.27014 | 15 ft | 30 kts | 163° |
| 2026-05-08 12:34 | 41.81586 | 12.27093 | 15 ft | 31 kts | 163° |
| 2026-05-08 12:35 | 41.81377 | 12.27177 | 14 ft | 32 kts | 162° |
| 2026-05-08 12:35 | 41.81160 | 12.27272 | 14 ft | 33 kts | 162° |
| 2026-05-08 12:35 | 41.80941 | 12.27347 | 16 ft | 32 kts | 176° |
| 2026-05-08 12:35 | 41.80749 | 12.27320 | 14 ft | 25 kts | 196° |
| 2026-05-08 12:36 | 41.80636 | 12.27164 | 14 ft | 24 kts | 248° |
| 2026-05-08 12:36 | 41.80585 | 12.26964 | 16 ft | 23 kts | 255° |
| 2026-05-08 12:36 | 41.80534 | 12.26768 | 14 ft | 22 kts | 250° |
| 2026-05-08 12:36 | 41.80481 | 12.26578 | 14 ft | 21 kts | 249° |
| 2026-05-08 12:37 | 41.80413 | 12.26408 | 14 ft | 20 kts | 225° |
| 2026-05-08 12:37 | 41.80345 | 12.26379 | 14 ft | 5 kts | 178° |
| 2026-05-08 12:37 | 41.80310 | 12.26370 | 14 ft | 5 kts | 204° |
| 2026-05-08 12:37 | 41.80281 | 12.26345 | 16 ft | 5 kts | 212° |
| 2026-05-08 12:38 | 41.80251 | 12.26324 | 16 ft | 5 kts | 205° |
| 2026-05-08 12:38 | 41.80245 | 12.26321 | 15 ft | 0 kts | 205° |